Time;durP1;ratioP1;P1;durP2;ratioP2;P2;SDS_P1;SDS_P2;PMS_P1;PMS_P2;Temp;Humidity;BMP_temperature;BMP_pressure;BME280_temperature;BME280_humidity;BME280_pressure;Samples;Min_cycle;Max_cycle;Signal;HPM_P1;HPM_P2
2023/04/03 00:01:09;;;;;;;1.52;1.17;;;;;;;1.39;100.00;103242.63;5005692;28;20039;-72
2023/04/03 00:03:36;;;;;;;0.90;0.90;;;;;;;1.39;100.00;103249.56;5025208;28;20646;-72
2023/04/03 00:06:03;;;;;;;1.23;1.02;;;;;;;1.40;100.00;103251.34;5023400;28;20036;-72
2023/04/03 00:08:30;;;;;;;1.92;1.00;;;;;;;1.40;100.00;103247.00;5023933;28;20040;-72
2023/04/03 00:10:56;;;;;;;1.77;1.10;;;;;;;1.38;100.00;103246.09;5024187;28;20037;-72
2023/04/03 00:13:22;;;;;;;0.95;0.90;;;;;;;1.36;100.00;103242.53;5024024;28;20157;-72
2023/04/03 00:15:48;;;;;;;1.42;0.93;;;;;;;1.33;100.00;103253.78;4986621;28;20133;-72
2023/04/03 00:18:14;;;;;;;1.30;0.90;;;;;;;1.32;100.00;103254.59;5024136;28;20041;-72
2023/04/03 00:20:39;;;;;;;1.00;0.95;;;;;;;1.30;100.00;103251.06;4996745;28;20057;-72
2023/04/03 00:23:05;;;;;;;0.88;0.88;;;;;;;1.29;100.00;103257.13;5006625;28;20048;-72
2023/04/03 00:25:30;;;;;;;1.55;0.85;;;;;;;1.29;100.00;103258.81;5022331;28;20043;-72
2023/04/03 00:27:56;;;;;;;1.35;0.80;;;;;;;1.28;100.00;103257.06;5005169;28;20048;-72
2023/04/03 00:30:22;;;;;;;2.83;0.93;;;;;;;1.27;100.00;103260.50;5002004;28;20205;-72
2023/04/03 00:32:48;;;;;;;1.65;0.75;;;;;;;1.26;100.00;103266.56;5021294;28;20484;-72
2023/04/03 00:35:15;;;;;;;1.23;0.90;;;;;;;1.24;100.00;103250.00;5021678;28;20087;-72
2023/04/03 00:37:41;;;;;;;1.80;0.77;;;;;;;1.22;100.00;103257.75;5022742;28;20159;-72
2023/04/03 00:40:08;;;;;;;0.70;0.70;;;;;;;1.21;100.00;103261.22;5002229;28;20918;-72
2023/04/03 00:42:34;;;;;;;0.70;0.70;;;;;;;1.18;100.00;103251.56;4987614;28;20045;-72
2023/04/03 00:45:00;;;;;;;2.70;1.10;;;;;;;1.16;100.00;103258.47;5004657;28;20052;-72
2023/04/03 00:47:26;;;;;;;0.75;0.75;;;;;;;1.12;100.00;103261.78;5022880;28;20130;-72
2023/04/03 00:49:52;;;;;;;0.80;0.80;;;;;;;1.09;100.00;103261.66;5023483;28;20114;-72
2023/04/03 00:52:21;;;;;;;2.53;1.05;;;;;;;1.06;100.00;103270.31;5004495;28;20086;-72
2023/04/03 00:54:49;;;;;;;1.80;0.80;;;;;;;1.05;100.00;103267.66;5023602;28;20021;-72
2023/04/03 00:57:15;;;;;;;0.80;0.80;;;;;;;1.04;100.00;103266.75;5003578;28;20033;-72
2023/04/03 00:59:48;;;;;;;0.88;0.70;;;;;;;1.04;100.00;103263.25;5005224;28;20093;-72
2023/04/03 01:02:13;;;;;;;0.95;0.90;;;;;;;1.03;100.00;103261.50;5020781;28;20025;-72
2023/04/03 01:04:41;;;;;;;0.80;0.80;;;;;;;1.02;100.00;103270.13;5005462;28;20045;-72
2023/04/03 01:07:10;;;;;;;0.85;0.80;;;;;;;1.00;100.00;103271.81;5022575;28;20101;-73
2023/04/03 01:09:37;;;;;;;3.13;1.10;;;;;;;0.98;100.00;103270.88;5003227;28;20555;-72
2023/04/03 01:12:22;;;;;;;0.77;0.77;;;;;;;0.96;100.00;103269.97;5001623;28;20100;-72
2023/04/03 01:14:57;;;;;;;2.03;0.88;;;;;;;0.93;100.00;103276.81;5003863;28;20839;-72
2023/04/03 01:17:45;;;;;;;2.97;1.08;;;;;;;0.92;100.00;103279.38;5001825;28;20121;-73
2023/04/03 01:20:11;;;;;;;1.42;0.85;;;;;;;0.91;100.00;103285.44;5022690;28;20117;-72
2023/04/03 01:23:10;;;;;;;0.85;0.80;;;;;;;0.88;100.00;103272.28;5004333;28;20756;-72
2023/04/03 01:25:37;;;;;;;2.78;0.98;;;;;;;0.87;100.00;103275.75;4988754;28;20052;-72
2023/04/03 01:28:04;;;;;;;1.38;1.10;;;;;;;0.84;100.00;103281.75;4971924;28;20037;-72
2023/04/03 01:30:46;;;;;;;0.88;0.85;;;;;;;0.81;100.00;103273.78;5003942;28;20148;-72
2023/04/03 01:33:12;;;;;;;2.17;1.00;;;;;;;0.78;100.00;103284.13;5005529;28;20065;-72
2023/04/03 01:35:37;;;;;;;3.17;0.90;;;;;;;0.75;100.00;103281.41;5020232;28;21354;-72
2023/04/03 01:38:03;;;;;;;2.25;0.90;;;;;;;0.73;100.00;103283.06;5020795;28;20043;-72
2023/04/03 01:40:28;;;;;;;1.52;0.88;;;;;;;0.70;100.00;103275.16;5022646;28;20098;-72
2023/04/03 01:42:54;;;;;;;1.30;1.02;;;;;;;0.69;100.00;103273.38;5023468;28;20061;-72
2023/04/03 01:45:19;;;;;;;1.42;1.00;;;;;;;0.64;100.00;103274.09;5000401;28;20119;-72
2023/04/03 01:47:45;;;;;;;1.27;1.00;;;;;;;0.60;100.00;103274.81;5002957;28;20200;-72
2023/04/03 01:50:10;;;;;;;2.85;1.27;;;;;;;0.58;100.00;103279.09;5021237;28;20044;-72
2023/04/03 01:52:36;;;;;;;1.58;0.80;;;;;;;0.55;100.00;103279.00;5003465;28;20172;-72
2023/04/03 01:55:01;;;;;;;1.20;0.80;;;;;;;0.53;100.00;103280.66;5020007;28;20041;-72
2023/04/03 01:57:26;;;;;;;0.80;0.80;;;;;;;0.50;100.00;103283.16;5021913;28;20433;-72
2023/04/03 01:59:52;;;;;;;2.20;1.00;;;;;;;0.48;100.00;103274.41;5022591;28;20091;-72
2023/04/03 02:02:19;;;;;;;1.35;0.90;;;;;;;0.47;100.00;103275.22;5020093;28;20127;-72
2023/04/03 02:04:45;;;;;;;1.50;1.25;;;;;;;0.43;100.00;103283.78;5022866;28;20041;-72
2023/04/03 02:07:10;;;;;;;2.95;0.90;;;;;;;0.40;100.00;103282.81;5020774;28;20176;-72
2023/04/03 02:09:35;;;;;;;1.23;1.08;;;;;;;0.37;100.00;103287.03;5022147;28;20040;-72
2023/04/03 02:12:01;;;;;;;1.65;1.15;;;;;;;0.36;100.00;103293.97;4999329;28;20044;-73
2023/04/03 02:14:27;;;;;;;0.90;0.80;;;;;;;0.36;100.00;103296.59;4972519;28;20037;-73
2023/04/03 02:16:53;;;;;;;1.83;1.30;;;;;;;0.35;100.00;103302.63;5021693;28;20071;-73
2023/04/03 02:19:18;;;;;;;0.93;0.80;;;;;;;0.34;100.00;103295.66;5003151;28;20061;-73
2023/04/03 02:21:44;;;;;;;2.00;1.05;;;;;;;0.33;100.00;103303.41;5022345;28;20046;-73
2023/04/03 02:24:09;;;;;;;3.75;1.10;;;;;;;0.27;100.00;103301.44;5021301;28;20574;-73
2023/04/03 02:26:35;;;;;;;0.82;0.80;;;;;;;0.25;100.00;103304.00;5020745;28;20116;-73
2023/04/03 02:29:00;;;;;;;1.33;1.10;;;;;;;0.22;100.00;103314.28;5023488;28;20029;-73
2023/04/03 02:31:26;;;;;;;1.65;1.10;;;;;;;0.21;100.00;103304.72;5025091;28;20250;-73
2023/04/03 02:33:51;;;;;;;1.80;1.00;;;;;;;0.18;100.00;103306.31;5025833;28;20140;-73
2023/04/03 02:36:17;;;;;;;2.30;1.20;;;;;;;0.16;100.00;103311.47;5004898;28;20044;-73
2023/04/03 02:38:43;;;;;;;3.72;1.30;;;;;;;0.14;100.00;103315.72;5003964;28;20151;-73
2023/04/03 02:41:10;;;;;;;1.80;1.00;;;;;;;0.12;100.00;103313.06;5007427;28;20043;-73
2023/04/03 02:43:36;;;;;;;2.20;1.08;;;;;;;0.11;100.00;103311.28;5025412;28;20073;-73
2023/04/03 02:46:01;;;;;;;1.02;0.93;;;;;;;0.09;100.00;103310.34;5003919;28;20556;-74
2023/04/03 02:48:27;;;;;;;1.30;1.20;;;;;;;0.09;100.00;103317.25;5005734;28;20045;-73
2023/04/03 02:50:53;;;;;;;1.70;1.30;;;;;;;0.07;100.00;103325.03;5026501;28;20037;-73
2023/04/03 02:53:19;;;;;;;1.80;1.30;;;;;;;0.05;100.00;103324.09;5024580;28;20471;-73
2023/04/03 02:55:45;;;;;;;1.38;1.15;;;;;;;0.02;100.00;103318.75;5004378;28;20798;-73
2023/04/03 02:58:11;;;;;;;2.95;1.20;;;;;;;0.00;100.00;103325.66;5004567;28;20044;-73
2023/04/03 03:00:36;;;;;;;0.93;0.93;;;;;;;-0.03;100.00;103320.28;5006214;28;20424;-73
2023/04/03 03:03:02;;;;;;;1.10;1.00;;;;;;;-0.05;100.00;103329.78;5007023;28;20040;-73
2023/04/03 03:05:28;;;;;;;1.90;1.05;;;;;;;-0.08;100.00;103327.03;5005242;28;20033;-73
2023/04/03 03:07:54;;;;;;;2.00;1.10;;;;;;;-0.10;100.00;103319.19;5025059;28;20040;-73
2023/04/03 03:10:20;;;;;;;2.15;1.23;;;;;;;-0.10;100.00;103329.59;5025266;28;20150;-73
2023/04/03 03:12:46;;;;;;;2.15;1.15;;;;;;;-0.11;100.00;103326.94;4989495;28;20038;-73
2023/04/03 03:15:11;;;;;;;3.78;1.30;;;;;;;-0.12;100.00;103330.38;5005306;28;20125;-73
2023/04/03 03:17:37;;;;;;;1.05;0.88;;;;;;;-0.11;100.00;103332.16;5010346;28;20033;-73
2023/04/03 03:20:04;;;;;;;3.55;1.40;;;;;;;-0.12;100.00;103326.03;5025663;28;20045;-73
2023/04/03 03:22:29;;;;;;;1.20;1.02;;;;;;;-0.12;100.00;103330.38;5024194;28;20408;-73
2023/04/03 03:24:55;;;;;;;3.72;1.20;;;;;;;-0.12;100.00;103338.19;5024671;28;20041;-73
2023/04/03 03:27:20;;;;;;;1.25;1.15;;;;;;;-0.13;100.00;103332.06;5004022;28;20657;-73
2023/04/03 03:29:46;;;;;;;2.63;1.15;;;;;;;-0.12;100.00;103335.59;4990518;28;20041;-73
2023/04/03 03:32:12;;;;;;;2.80;1.20;;;;;;;-0.10;100.00;103341.72;5023694;28;20037;-73
2023/04/03 03:34:38;;;;;;;2.65;1.20;;;;;;;-0.09;100.00;103340.91;5025126;28;20051;-73
2023/04/03 03:37:04;;;;;;;1.30;1.20;;;;;;;-0.11;100.00;103340.81;5006320;28;20049;-73
2023/04/03 03:39:29;;;;;;;3.83;1.27;;;;;;;-0.12;100.00;103340.78;5000918;28;20036;-73
2023/04/03 03:41:55;;;;;;;1.92;1.05;;;;;;;-0.15;100.00;103352.84;5002705;28;20081;-73
2023/04/03 03:44:20;;;;;;;2.35;1.30;;;;;;;-0.17;100.00;103351.91;5024541;28;20033;-73
2023/04/03 03:46:46;;;;;;;2.55;1.30;;;;;;;-0.22;100.00;103345.63;5008844;28;20148;-73
2023/04/03 03:49:12;;;;;;;1.27;1.15;;;;;;;-0.25;100.00;103345.50;5023046;28;20451;-73
2023/04/03 03:51:38;;;;;;;4.32;1.13;;;;;;;-0.27;100.00;103339.34;5024170;28;20132;-73
2023/04/03 03:54:04;;;;;;;2.63;1.17;;;;;;;-0.29;100.00;103339.28;5024111;28;20034;-73
2023/04/03 03:56:30;;;;;;;2.85;1.15;;;;;;;-0.30;100.00;103341.81;5023655;28;20032;-73
2023/04/03 03:58:56;;;;;;;3.13;1.48;;;;;;;-0.32;100.00;103343.47;5007593;28;20052;-74
2023/04/03 04:01:22;;;;;;;2.10;1.20;;;;;;;-0.32;100.00;103348.69;5024527;28;20051;-73
2023/04/03 04:03:47;;;;;;;2.25;1.35;;;;;;;-0.32;100.00;103353.91;5023858;28;20033;-73
2023/04/03 04:06:13;;;;;;;3.03;1.40;;;;;;;-0.36;100.00;103346.78;5006565;28;20261;-73
2023/04/03 04:08:39;;;;;;;2.95;1.20;;;;;;;-0.38;100.00;103343.22;5023268;28;20040;-73
2023/04/03 04:11:04;;;;;;;3.10;1.25;;;;;;;-0.40;100.00;103355.31;5023481;28;20548;-73
2023/04/03 04:13:30;;;;;;;1.63;1.10;;;;;;;-0.46;100.00;103346.41;5024206;28;20036;-73
2023/04/03 04:15:55;;;;;;;3.03;1.30;;;;;;;-0.49;100.00;103354.09;5021801;28;20476;-73
2023/04/03 04:18:22;;;;;;;2.75;1.20;;;;;;;-0.51;100.00;103347.94;5024517;28;20037;-73
2023/04/03 04:20:48;;;;;;;1.33;1.10;;;;;;;-0.52;100.00;103334.84;5024315;28;20610;-73
2023/04/03 04:23:14;;;;;;;3.53;1.75;;;;;;;-0.51;100.00;103342.72;5024138;28;20044;-74
2023/04/03 04:25:40;;;;;;;3.63;1.40;;;;;;;-0.51;100.00;103339.22;5020919;28;20044;-73
2023/04/03 04:28:05;;;;;;;2.20;1.48;;;;;;;-0.51;100.00;103337.53;5022613;28;20059;-73
2023/04/03 04:30:31;;;;;;;1.05;0.98;;;;;;;-0.51;100.00;103334.03;5002957;28;20036;-73
2023/04/03 04:32:57;;;;;;;5.80;1.88;;;;;;;-0.52;100.00;103340.06;5021646;28;21060;-73
2023/04/03 04:35:22;;;;;;;1.65;1.17;;;;;;;-0.54;100.00;103342.63;5022982;28;20047;-73
2023/04/03 04:37:47;;;;;;;2.88;1.40;;;;;;;-0.55;100.00;103340.81;5022890;28;20041;-74
2023/04/03 04:40:13;;;;;;;3.42;1.30;;;;;;;-0.55;100.00;103346.03;5024029;28;20045;-73
2023/04/03 04:42:39;;;;;;;4.97;1.45;;;;;;;-0.55;100.00;103352.13;5021593;28;21715;-73
2023/04/03 04:45:04;;;;;;;3.88;1.52;;;;;;;-0.56;100.00;103359.88;5022841;28;20632;-73
2023/04/03 04:47:30;;;;;;;3.25;1.20;;;;;;;-0.58;100.00;103353.72;5023163;28;20776;-73
2023/04/03 04:50:04;;;;;;;2.05;1.30;;;;;;;-0.59;100.00;103357.16;5000529;28;20087;-73
2023/04/03 04:52:29;;;;;;;2.35;1.40;;;;;;;-0.61;100.00;103361.41;5003744;28;20984;-73
2023/04/03 04:54:54;;;;;;;2.13;1.23;;;;;;;-0.62;100.00;103380.41;5022899;28;20041;-73
2023/04/03 04:57:20;;;;;;;1.88;1.33;;;;;;;-0.63;100.00;103383.84;5004165;28;20712;-73
2023/04/03 04:59:45;;;;;;;3.15;1.30;;;;;;;-0.66;100.00;103387.22;5002814;28;20040;-73
2023/04/03 05:02:11;;;;;;;1.95;1.30;;;;;;;-0.70;100.00;103383.59;5022558;28;20116;-73
2023/04/03 05:04:36;;;;;;;3.90;1.65;;;;;;;-0.73;100.00;103383.47;5001655;28;20364;-73
2023/04/03 05:07:02;;;;;;;2.38;1.40;;;;;;;-0.75;100.00;103379.94;4988416;28;20067;-73
2023/04/03 05:09:27;;;;;;;4.85;1.60;;;;;;;-0.77;100.00;103385.88;5001809;28;20051;-73
2023/04/03 05:11:53;;;;;;;2.40;1.58;;;;;;;-0.80;100.00;103386.66;5023210;28;20792;-73
2023/04/03 05:14:18;;;;;;;4.78;1.58;;;;;;;-0.82;100.00;103383.97;5004980;28;20048;-73
2023/04/03 05:16:44;;;;;;;2.40;1.58;;;;;;;-0.84;100.00;103379.50;4989460;28;20037;-74
2023/04/03 05:19:09;;;;;;;1.55;1.33;;;;;;;-0.84;100.00;103390.81;5001125;28;20076;-73
2023/04/03 05:21:35;;;;;;;4.30;1.50;;;;;;;-0.84;100.00;103387.31;5022416;28;20745;-73
2023/04/03 05:24:02;;;;;;;3.63;1.73;;;;;;;-0.84;100.00;103392.53;5001369;28;21756;-73
2023/04/03 05:26:29;;;;;;;1.75;1.45;;;;;;;-0.87;100.00;103390.69;5002219;28;20044;-73
2023/04/03 05:28:55;;;;;;;3.13;1.52;;;;;;;-0.88;100.00;103393.22;5023118;28;20488;-73
2023/04/03 05:31:21;;;;;;;1.98;1.45;;;;;;;-0.91;100.00;103388.78;5020840;28;20037;-73
2023/04/03 05:33:47;;;;;;;2.05;1.50;;;;;;;-0.91;100.00;103394.00;5023202;28;20049;-74
2023/04/03 05:36:12;;;;;;;4.10;1.70;;;;;;;-0.92;100.00;103393.91;5005435;28;20028;-74
2023/04/03 05:38:39;;;;;;;2.42;1.58;;;;;;;-0.92;100.00;103402.63;5022950;28;20044;-73
2023/04/03 05:41:06;;;;;;;1.92;1.55;;;;;;;-0.93;100.00;103390.41;5022670;28;20155;-73
2023/04/03 05:43:31;;;;;;;3.03;1.63;;;;;;;-0.91;100.00;103395.69;5001989;28;20037;-73
2023/04/03 05:45:56;;;;;;;5.65;1.67;;;;;;;-0.91;100.00;103400.88;5022680;28;20643;-73
2023/04/03 05:48:22;;;;;;;3.33;1.63;;;;;;;-0.89;100.00;103396.63;5023253;28;20041;-73
2023/04/03 05:50:48;;;;;;;3.50;1.65;;;;;;;-0.88;100.00;103403.63;5022636;28;20127;-73
2023/04/03 05:53:20;;;;;;;1.75;1.50;;;;;;;-0.86;100.00;103407.19;5021075;28;20041;-72
2023/04/03 05:55:46;;;;;;;5.57;1.70;;;;;;;-0.84;100.00;103410.72;5004669;28;20181;-72
2023/04/03 05:58:12;;;;;;;2.70;1.35;;;;;;;-0.86;100.00;103407.19;5006685;28;20607;-72
2023/04/03 06:00:38;;;;;;;2.10;1.50;;;;;;;-0.84;100.00;103405.53;5022142;28;21734;-72
2023/04/03 06:03:03;;;;;;;4.03;1.83;;;;;;;-0.85;100.00;103409.88;5005866;28;20041;-72
2023/04/03 06:05:28;;;;;;;4.60;1.90;;;;;;;-0.83;100.00;103409.91;5026267;28;20069;-72
2023/04/03 06:07:54;;;;;;;3.28;1.60;;;;;;;-0.82;100.00;103412.59;4995202;28;20041;-72
2023/04/03 06:10:20;;;;;;;2.88;1.63;;;;;;;-0.78;100.00;103413.59;5026152;28;20176;-72
2023/04/03 06:12:45;;;;;;;4.32;1.70;;;;;;;-0.75;100.00;103413.75;5026669;28;20550;-72
2023/04/03 06:15:11;;;;;;;3.97;1.73;;;;;;;-0.71;100.00;103415.66;5031188;28;20697;-72
2023/04/03 06:17:37;;;;;;;1.67;1.58;;;;;;;-0.67;100.00;103418.41;5012898;28;20036;-72
2023/04/03 06:20:04;;;;;;;4.40;2.05;;;;;;;-0.66;100.00;103421.03;5024857;28;20442;-72
2023/04/03 06:22:30;;;;;;;4.20;1.80;;;;;;;-0.61;100.00;103429.06;5027573;28;20037;-72
2023/04/03 06:24:56;;;;;;;2.15;1.42;;;;;;;-0.57;100.00;103420.56;4997987;28;20642;-72
2023/04/03 06:27:22;;;;;;;2.15;1.48;;;;;;;-0.54;100.00;103425.91;5026572;28;20430;-73
2023/04/03 06:29:48;;;;;;;1.60;1.50;;;;;;;-0.49;100.00;103432.16;5008458;28;20029;-72
2023/04/03 06:32:14;;;;;;;4.55;1.85;;;;;;;-0.42;100.00;103439.41;4992822;28;20033;-72
2023/04/03 06:34:41;;;;;;;2.70;1.90;;;;;;;-0.38;100.00;103432.63;5028697;28;20045;-72
2023/04/03 06:37:12;;;;;;;3.55;1.63;;;;;;;-0.32;100.00;103430.28;5011528;28;20083;-72
2023/04/03 06:39:37;;;;;;;3.58;1.83;;;;;;;-0.26;100.00;103434.88;5007275;28;20071;-73
2023/04/03 06:42:03;;;;;;;3.17;1.80;;;;;;;-0.22;100.00;103444.56;5032735;28;20052;-72
2023/04/03 06:44:28;;;;;;;8.02;2.30;;;;;;;-0.17;100.00;103434.34;5027552;28;20073;-74
2023/04/03 06:46:54;;;;;;;4.95;2.13;;;;;;;-0.10;100.00;103431.19;5017156;28;20647;-73
2023/04/03 06:49:20;;;;;;;5.72;2.03;;;;;;;0.00;100.00;103445.47;5025562;28;20033;-72
2023/04/03 06:51:45;;;;;;;4.35;1.70;;;;;;;0.10;100.00;103447.59;5026766;28;20041;-73
2023/04/03 06:54:14;;;;;;;4.38;1.70;;;;;;;0.24;100.00;103447.25;5025816;28;20475;-73
2023/04/03 06:56:40;;;;;;;4.55;1.77;;;;;;;0.37;100.00;103446.91;5010356;28;20044;-73
2023/04/03 06:59:06;;;;;;;4.32;1.92;;;;;;;0.46;100.00;103445.50;5027274;28;20049;-73
2023/04/03 07:01:33;;;;;;;4.72;1.55;;;;;;;0.56;100.00;103463.28;4996232;28;20052;-73
2023/04/03 07:03:59;;;;;;;5.10;1.73;;;;;;;0.65;100.00;103458.41;5024072;28;21487;-73
2023/04/03 07:06:28;;;;;;;3.92;1.75;;;;;;;0.73;100.00;103460.41;5026411;28;20082;-73
2023/04/03 07:08:54;;;;;;;3.30;1.75;;;;;;;0.81;100.00;103458.97;5008674;28;20041;-73
2023/04/03 07:11:20;;;;;;;4.90;1.80;;;;;;;0.87;100.00;103461.81;5025038;28;20217;-73
2023/04/03 07:13:45;;;;;;;3.63;1.75;;;;;;;0.94;100.00;103466.44;5025614;28;20500;-74
2023/04/03 07:16:11;;;;;;;2.35;1.50;;;;;;;1.02;100.00;103469.34;5005391;28;20068;-73
2023/04/03 07:18:37;;;;;;;4.32;1.70;;;;;;;1.10;100.00;103468.72;5029452;28;20053;-73
2023/04/03 07:21:03;;;;;;;6.68;1.88;;;;;;;1.17;100.00;103478.56;4981071;28;20063;-73
2023/04/03 07:23:28;;;;;;;3.38;1.92;;;;;;;1.24;100.00;103484.91;5026841;28;20065;-73
2023/04/03 07:25:54;;;;;;;1.52;1.40;;;;;;;1.28;100.00;103489.38;5028501;28;20531;-73
2023/04/03 07:28:22;;;;;;;2.47;1.52;;;;;;;1.36;100.00;103490.53;4988851;28;20030;-73
2023/04/03 07:30:50;;;;;;;2.65;1.55;;;;;;;1.42;100.00;103495.97;5000589;28;20123;-73
2023/04/03 07:33:17;;;;;;;2.85;1.40;;;;;;;1.49;100.00;103505.78;5026817;28;20036;-73
2023/04/03 07:35:43;;;;;;;3.22;1.20;;;;;;;1.57;100.00;103499.97;5010504;28;20033;-73
2023/04/03 07:38:09;;;;;;;1.88;1.30;;;;;;;1.67;100.00;103501.16;5025559;28;20037;-73
2023/04/03 07:40:36;;;;;;;3.50;1.70;;;;;;;1.74;100.00;103504.03;5006423;28;20041;-73
2023/04/03 07:43:02;;;;;;;2.60;1.80;;;;;;;1.81;100.00;103504.25;4991827;28;20031;-73
2023/04/03 07:45:38;;;;;;;3.78;1.58;;;;;;;1.87;100.00;103514.94;5027029;28;20578;-73
2023/04/03 07:48:06;;;;;;;1.60;1.50;;;;;;;1.93;100.00;103515.13;4992759;28;20060;-73
2023/04/03 07:50:32;;;;;;;5.60;1.60;;;;;;;2.00;100.00;103511.88;5012759;28;20014;-73
2023/04/03 07:52:58;;;;;;;3.72;1.60;;;;;;;2.06;100.00;103510.31;5025243;28;20037;-73
2023/04/03 07:55:32;;;;;;;4.47;1.50;;;;;;;2.13;100.00;103513.16;5028565;28;20025;-73
2023/04/03 07:57:57;;;;;;;2.60;1.90;;;;;;;2.20;100.00;103508.13;5017512;28;20503;-73
2023/04/03 08:00:24;;;;;;;2.25;1.50;;;;;;;2.29;100.00;103514.56;5027056;28;20033;-73
2023/04/03 08:02:51;;;;;;;2.72;1.70;;;;;;;2.36;100.00;103514.75;5024786;28;20267;-73
2023/04/03 08:05:20;;;;;;;1.83;1.20;;;;;;;2.40;100.00;103504.44;4980643;28;20503;-73
2023/04/03 08:07:56;;;;;;;2.80;1.40;;;;;;;2.49;100.00;103501.22;4976461;28;20032;-73
2023/04/03 08:10:37;;;;;;;4.90;1.52;;;;;;;2.54;100.00;103499.66;5011589;28;20061;-73
2023/04/03 08:13:03;;;;;;;3.80;1.55;;;;;;;2.61;100.00;103499.84;5025893;28;20149;-73
2023/04/03 08:15:30;;;;;;;3.72;1.58;;;;;;;2.66;100.00;103498.25;5008507;28;20059;-73
2023/04/03 08:17:56;;;;;;;1.83;1.35;;;;;;;2.75;100.00;103500.25;5033884;28;20133;-73
2023/04/03 08:20:21;;;;;;;4.63;1.60;;;;;;;2.84;100.00;103500.53;5004372;28;20037;-73
2023/04/03 08:22:47;;;;;;;2.47;1.15;;;;;;;2.94;100.00;103499.94;5016883;28;20447;-73
2023/04/03 08:25:12;;;;;;;2.53;1.40;;;;;;;3.01;100.00;103498.41;5006743;28;20037;-73
2023/04/03 08:27:38;;;;;;;3.63;1.58;;;;;;;3.09;100.00;103504.75;5010470;28;20040;-74
2023/04/03 08:30:04;;;;;;;2.22;1.65;;;;;;;3.17;100.00;103501.47;5003969;28;20143;-74
2023/04/03 08:32:30;;;;;;;3.85;1.42;;;;;;;3.22;100.00;103500.72;5002283;28;20388;-73
2023/04/03 08:34:55;;;;;;;2.58;1.40;;;;;;;3.29;100.00;103501.81;5004882;28;20037;-73
2023/04/03 08:37:21;;;;;;;1.60;1.05;;;;;;;3.36;100.00;103502.84;5004697;28;20033;-73
2023/04/03 08:39:47;;;;;;;3.22;1.38;;;;;;;3.44;100.00;103500.44;5002519;28;20044;-73
2023/04/03 08:42:34;;;;;;;2.42;1.40;;;;;;;3.50;100.00;103504.09;5005894;28;20472;-73
2023/04/03 08:45:12;;;;;;;1.83;1.55;;;;;;;3.56;100.00;103489.41;5005253;28;20108;-73
2023/04/03 08:47:42;;;;;;;3.70;1.73;;;;;;;3.60;100.00;103500.00;5004842;28;20025;-73
2023/04/03 08:50:12;;;;;;;2.22;1.17;;;;;;;3.63;100.00;103492.25;5001784;28;20041;-73
2023/04/03 08:52:39;;;;;;;3.42;1.38;;;;;;;3.69;100.00;103496.75;5003645;28;20033;-73
2023/04/03 08:55:20;;;;;;;2.95;1.60;;;;;;;3.77;100.00;103499.56;5001940;28;20113;-74
2023/04/03 08:57:48;;;;;;;1.70;1.60;;;;;;;3.87;100.00;103496.31;4971838;28;20185;-73
2023/04/03 09:00:13;;;;;;;3.45;2.15;;;;;;;3.97;100.00;103507.06;5001729;28;20034;-73
2023/04/03 09:02:45;;;;;;;2.67;1.70;;;;;;;4.04;100.00;103498.50;5010282;28;20090;-73
2023/04/03 09:05:20;;;;;;;2.80;1.23;;;;;;;4.13;98.40;103493.47;5002664;28;20590;-73
2023/04/03 09:07:48;;;;;;;1.77;1.10;;;;;;;4.19;97.71;103503.22;5002774;28;20323;-74
2023/04/03 09:10:16;;;;;;;5.65;1.52;;;;;;;4.29;96.40;103507.84;5005336;28;20041;-73
2023/04/03 09:12:45;;;;;;;4.22;1.30;;;;;;;4.43;95.46;103491.53;4999618;28;20030;-73
2023/04/03 09:15:24;;;;;;;1.30;1.00;;;;;;;4.60;95.58;103499.78;4985203;28;20037;-71
2023/04/03 09:18:00;;;;;;;3.63;1.48;;;;;;;4.73;94.52;103488.69;4997192;28;21345;-72
2023/04/03 09:20:40;;;;;;;1.38;0.98;;;;;;;4.82;94.81;103500.25;5005737;28;20124;-71
2023/04/03 09:23:27;;;;;;;2.58;1.13;;;;;;;4.92;92.31;103496.06;4991547;28;20469;-73
2023/04/03 09:25:58;;;;;;;1.40;1.30;;;;;;;5.02;94.67;103490.19;5000060;28;20369;-72
2023/04/03 09:28:23;;;;;;;2.38;1.10;;;;;;;5.12;94.76;103488.63;4998331;28;20594;-72
2023/04/03 09:30:49;;;;;;;1.33;1.08;;;;;;;5.17;93.77;103489.56;5003378;28;20061;-72
2023/04/03 09:33:16;;;;;;;3.70;0.98;;;;;;;5.20;92.89;103487.03;5021941;28;20058;-73
2023/04/03 09:35:42;;;;;;;1.73;1.02;;;;;;;5.23;94.15;103484.44;4993575;28;20037;-73
2023/04/03 09:38:10;;;;;;;4.68;1.17;;;;;;;5.27;93.47;103488.91;5004657;28;20484;-72
2023/04/03 09:40:43;;;;;;;1.17;1.08;;;;;;;5.32;92.56;103491.63;4986719;28;20656;-72
2023/04/03 09:43:30;;;;;;;3.60;1.23;;;;;;;5.36;89.78;103493.47;5004315;28;20136;-72
2023/04/03 09:46:16;;;;;;;1.98;0.90;;;;;;;5.41;88.63;103490.91;5022953;28;20516;-72
2023/04/03 09:48:51;;;;;;;0.98;0.80;;;;;;;5.40;90.66;103494.41;5022605;28;20061;-73
2023/04/03 09:51:16;;;;;;;0.60;0.60;;;;;;;5.40;91.21;103494.41;5002867;28;20051;-72
2023/04/03 09:53:44;;;;;;;1.15;0.80;;;;;;;5.44;90.25;103493.59;5013253;28;20049;-72
2023/04/03 09:56:15;;;;;;;1.38;0.75;;;;;;;5.43;87.70;103484.84;5003765;28;20489;-72
2023/04/03 09:58:43;;;;;;;0.88;0.80;;;;;;;5.48;87.13;103481.38;5018005;28;20052;-72
2023/04/03 10:01:30;;;;;;;1.98;0.85;;;;;;;5.50;83.29;103493.72;5018047;28;20067;-72
2023/04/03 10:04:15;;;;;;;1.52;0.90;;;;;;;5.47;82.19;103484.88;5021538;28;20065;-72
2023/04/03 10:06:46;;;;;;;1.08;0.80;;;;;;;5.43;85.46;103482.22;5017740;28;20030;-72
2023/04/03 10:09:32;;;;;;;0.98;0.85;;;;;;;5.45;79.60;103484.84;4992207;28;21774;-72
2023/04/03 10:12:09;;;;;;;1.00;0.75;;;;;;;5.46;81.93;103473.50;5002992;28;20204;-72
2023/04/03 10:15:03;;;;;;;3.08;0.77;;;;;;;5.50;84.51;103469.19;4999475;28;20659;-72
2023/04/03 10:17:34;;;;;;;1.05;0.70;;;;;;;5.55;82.52;103470.13;5009803;28;20541;-72
2023/04/03 10:20:39;;;;;;;1.27;0.80;;;;;;;5.52;79.41;103463.09;5017285;28;20033;-72
2023/04/03 10:23:32;;;;;;;0.88;0.85;;;;;;;5.56;77.76;103458.78;5016945;28;20033;-72
2023/04/03 10:26:17;;;;;;;1.35;0.88;;;;;;;5.61;79.44;103461.50;5001229;28;20416;-72
2023/04/03 10:28:58;;;;;;;1.80;0.90;;;;;;;5.63;78.97;103463.28;5009097;28;20043;-72
2023/04/03 10:31:46;;;;;;;1.05;0.73;;;;;;;5.67;75.64;103451.09;5016322;28;20052;-72
2023/04/03 10:34:23;;;;;;;1.25;0.70;;;;;;;5.73;77.74;103453.81;5020403;28;20059;-72
2023/04/03 10:37:09;;;;;;;2.33;0.80;;;;;;;5.73;78.57;103459.09;5003024;28;20150;-72
2023/04/03 10:39:53;;;;;;;1.08;0.73;;;;;;;5.73;73.87;103459.09;5001276;28;20033;-72
2023/04/03 10:42:23;;;;;;;1.20;1.10;;;;;;;5.74;76.98;103454.69;5018570;28;20049;-72
2023/04/03 10:45:01;;;;;;;1.40;0.70;;;;;;;5.78;76.50;103454.75;5019602;28;20161;-72
2023/04/03 10:48:04;;;;;;;1.75;0.88;;;;;;;5.82;72.19;103453.97;5002177;28;20037;-72
2023/04/03 10:50:36;;;;;;;0.98;0.60;;;;;;;5.84;76.60;103448.75;5023713;28;20583;-73
2023/04/03 10:53:33;;;;;;;1.08;0.75;;;;;;;5.87;72.42;103442.66;5025331;28;20051;-71
2023/04/03 10:56:22;;;;;;;0.70;0.70;;;;;;;5.88;73.20;103439.16;4992107;28;20056;-71
2023/04/03 10:58:52;;;;;;;0.75;0.65;;;;;;;5.92;74.70;103443.59;5025708;28;20669;-71
2023/04/03 11:01:25;;;;;;;1.40;1.02;;;;;;;5.96;76.15;103438.41;5007262;28;20415;-71
2023/04/03 11:04:01;;;;;;;0.68;0.68;;;;;;;6.01;75.32;103430.59;4993456;28;20761;-73
2023/04/03 11:06:34;;;;;;;1.95;1.00;;;;;;;6.04;74.40;103432.44;4996617;28;20486;-72
2023/04/03 11:09:11;;;;;;;1.77;0.70;;;;;;;6.04;75.24;103430.66;5005712;28;20405;-72
2023/04/03 11:11:39;;;;;;;1.15;0.85;;;;;;;6.06;74.15;103425.44;4972680;28;20534;-72
2023/04/03 11:14:16;;;;;;;0.98;0.68;;;;;;;6.08;72.15;103427.22;5006495;28;20041;-72
2023/04/03 11:16:53;;;;;;;1.80;0.73;;;;;;;6.07;70.17;103425.47;5009382;28;20036;-72
2023/04/03 11:19:32;;;;;;;2.60;0.95;;;;;;;6.10;68.58;103422.88;5008330;28;20455;-72
2023/04/03 11:22:20;;;;;;;1.17;0.70;;;;;;;6.15;71.08;103417.66;5007836;28;20484;-72
2023/04/03 11:25:11;;;;;;;1.05;0.68;;;;;;;6.17;70.24;103409.81;5029688;28;20673;-72
2023/04/03 11:27:54;;;;;;;2.10;0.70;;;;;;;6.16;65.51;103408.03;4993431;28;20045;-73
2023/04/03 11:30:53;;;;;;;1.10;0.88;;;;;;;6.17;66.30;103404.53;5002916;28;20148;-72
2023/04/03 11:33:45;;;;;;;1.05;0.60;;;;;;;6.13;65.15;103408.88;5024991;28;20634;-72